Time;durP1;ratioP1;P1;durP2;ratioP2;P2;SDS_P1;SDS_P2;PMS_P1;PMS_P2;Temp;Humidity;BMP_temperature;BMP_pressure;BME280_temperature;BME280_humidity;BME280_pressure;Samples;Min_cycle;Max_cycle;Signal;HPM_P1;HPM_P2
2022/06/22 00:00:21;;;;;;;;;13.00;12.67;;;;;21.54;48.56;100547.72;5017728;28;46312;-72
2022/06/22 00:02:52;;;;;;;;;11.67;9.00;;;;;21.88;48.20;100607.81;5034440;28;45546;-69
2022/06/22 00:05:27;;;;;;;;;10.67;10.67;;;;;21.71;48.51;100599.41;5017984;28;45270;-70
2022/06/22 00:07:57;;;;;;;;;13.33;12.00;;;;;21.69;49.17;100595.28;5034151;28;46586;-69
2022/06/22 00:10:50;;;;;;;;;12.33;12.00;;;;;21.62;48.82;100597.19;5018733;28;46604;-69
2022/06/22 00:13:20;;;;;;;;;18.33;15.33;;;;;21.76;48.89;100615.00;5037810;28;45530;-70
2022/06/22 00:15:57;;;;;;;;;13.00;13.00;;;;;21.23;49.10;100529.66;5038890;28;45561;-70
2022/06/22 00:18:41;;;;;;;;;14.67;14.67;;;;;20.49;48.83;100399.81;5038700;28;45968;-71
2022/06/22 00:21:24;;;;;;;;;15.00;13.67;;;;;21.76;48.91;100590.63;5038817;28;45245;-68
2022/06/22 00:23:53;;;;;;;;;13.33;12.33;;;;;21.50;48.96;100541.09;5037297;28;45416;-68
2022/06/22 00:26:24;;;;;;;;;13.33;12.00;;;;;21.78;49.04;100577.69;5054146;28;45724;-69
2022/06/22 00:29:02;;;;;;;;;12.00;11.33;;;;;21.77;49.06;100582.28;5038271;28;45766;-70
2022/06/22 00:31:47;;;;;;;;;14.00;12.00;;;;;21.01;49.00;100466.16;5038495;28;45495;-70
2022/06/22 00:34:16;;;;;;;;;13.00;13.00;;;;;21.41;48.98;100541.59;5018595;28;45213;-70
2022/06/22 00:37:01;;;;;;;;;15.67;13.00;;;;;21.50;49.42;100565.44;5017329;28;45529;-69
2022/06/22 00:39:30;;;;;;;;;14.67;14.33;;;;;21.64;49.23;100578.88;5018397;28;46277;-71
2022/06/22 00:42:21;;;;;;;;;13.67;12.67;;;;;21.59;49.44;100576.00;5018462;28;45437;-72
2022/06/22 00:45:07;;;;;;;;;14.67;13.33;;;;;21.55;49.73;100576.44;5018184;28;45580;-72
2022/06/22 00:47:45;;;;;;;;;12.67;12.67;;;;;21.45;50.01;100576.09;5018839;28;45446;-69
2022/06/22 00:50:18;;;;;;;;;13.67;12.33;;;;;21.45;49.89;100578.00;5020053;28;45737;-69
2022/06/22 00:52:46;;;;;;;;;16.00;13.00;;;;;21.44;49.95;100579.88;5018536;28;45217;-71
2022/06/22 00:55:30;;;;;;;;;18.33;16.33;;;;;21.07;50.25;100535.56;5027993;28;45259;-69
2022/06/22 00:58:07;;;;;;;;;17.00;15.33;;;;;21.30;50.10;100582.88;5022475;28;45575;-69
2022/06/22 01:00:38;;;;;;;;;14.67;12.67;;;;;20.96;50.44;100533.53;5041031;28;47127;-70
2022/06/22 01:03:13;;;;;;;;;7.33;7.33;;;;;21.25;50.42;100570.00;5018293;28;45305;-71
2022/06/22 01:05:51;;;;;;;;;18.67;14.00;;;;;21.20;50.41;100584.13;5018539;28;45573;-68
2022/06/22 01:08:31;;;;;;;;;18.00;18.00;;;;;21.18;50.41;100596.22;5018652;28;45344;-71
2022/06/22 01:11:05;;;;;;;;;14.33;12.67;;;;;20.38;50.65;100467.94;5018028;28;46174;-70
2022/06/22 01:13:51;;;;;;;;;17.00;16.67;;;;;21.07;50.87;100576.13;5017870;28;45531;-70
2022/06/22 01:16:26;;;;;;;;;18.33;13.67;;;;;20.20;50.64;100442.47;5017618;28;45320;-69
2022/06/22 01:19:09;;;;;;;;;16.00;16.00;;;;;21.07;50.53;100578.81;5019890;28;45236;-70
2022/06/22 01:21:40;;;;;;;;;17.33;16.67;;;;;20.96;50.82;100576.78;5037326;28;46745;-70
2022/06/22 01:24:13;;;;;;;;;16.00;14.33;;;;;20.96;50.99;100588.44;5036621;28;46081;-70
2022/06/22 01:27:17;;;;;;;;;16.00;14.00;;;;;20.94;51.14;100582.41;5037898;28;45223;-70
2022/06/22 01:29:49;;;;;;;;;17.33;14.67;;;;;20.21;51.19;100465.72;5038381;28;46570;-71
2022/06/22 01:32:20;;;;;;;;;16.67;14.33;;;;;20.79;51.03;100551.31;5036042;28;47346;-70
2022/06/22 01:34:51;;;;;;;;;14.33;13.67;;;;;20.83;51.32;100558.78;5037746;28;45332;-73
2022/06/22 01:37:27;;;;;;;;;17.33;16.33;;;;;20.83;51.14;100558.78;5037535;28;45335;-70
2022/06/22 01:40:20;;;;;;;;;13.67;13.67;;;;;20.92;51.07;100587.22;5037977;28;45332;-69
2022/06/22 01:43:01;;;;;;;;;15.67;14.00;;;;;20.93;51.29;100583.47;5036595;28;45962;-70
2022/06/22 01:45:44;;;;;;;;;14.67;14.00;;;;;20.91;51.09;100585.56;5036953;28;45502;-70
2022/06/22 01:48:24;;;;;;;;;19.67;16.33;;;;;20.77;51.04;100578.53;5017706;28;45535;-68
2022/06/22 01:51:22;;;;;;;;;16.67;15.00;;;;;20.92;50.84;100592.63;5017709;28;45396;-70
2022/06/22 01:54:00;;;;;;;;;17.67;16.33;;;;;20.92;50.81;100594.50;5049096;28;47708;-69
2022/06/22 01:56:30;;;;;;;;;14.33;14.33;;;;;20.54;51.12;100540.41;5017453;28;45429;-69
2022/06/22 01:59:03;;;;;;;;;19.00;14.33;;;;;20.86;51.36;100598.88;5017689;28;45438;-71
2022/06/22 02:01:41;;;;;;;;;17.67;14.67;;;;;20.61;50.99;100552.00;5017511;28;45472;-70
2022/06/22 02:04:22;;;;;;;;;20.33;18.33;;;;;20.70;50.94;100566.13;5017184;28;46774;-70
2022/06/22 02:10:23;;;;;;;;;14.33;14.33;;;;;20.90;50.93;100589.28;5017385;28;45455;-71
2022/06/22 02:13:08;;;;;;;;;23.00;19.67;;;;;21.02;50.89;100605.66;5017508;28;45297;-69
2022/06/22 02:15:39;;;;;;;;;17.67;17.67;;;;;21.03;50.98;100609.22;5027597;28;46615;-70
2022/06/22 02:18:20;;;;;;;;;19.33;17.67;;;;;20.99;51.16;100603.38;5036987;28;45269;-69
2022/06/22 02:20:45;;;;;;;;;15.00;14.50;;;;;20.69;50.94;100548.25;5036940;28;45352;-70
2022/06/22 02:23:22;;;;;;;;;22.67;19.00;;;;;20.91;51.08;100580.16;5037183;28;45382;-69
2022/06/22 02:26:05;;;;;;;;;18.33;17.00;;;;;20.29;50.81;100473.59;5036767;28;45668;-68
2022/06/22 02:28:31;;;;;;;;;15.67;14.00;;;;;21.05;50.96;100580.09;5036764;28;45406;-69
2022/06/22 02:30:58;;;;;;;;;21.00;17.67;;;;;20.80;50.94;100528.66;5037184;28;45430;-68
2022/06/22 02:33:24;;;;;;;;;20.00;20.00;;;;;21.04;50.71;100575.72;5037069;28;45511;-70
2022/06/22 02:35:51;;;;;;;;;21.00;17.67;;;;;20.75;50.95;100536.56;5036643;28;46491;-69
2022/06/22 02:38:17;;;;;;;;;18.33;16.00;;;;;20.87;50.83;100557.31;5036825;28;45359;-70
2022/06/22 02:46:18;;;;;;;;;19.00;19.00;;;;;21.02;50.85;100580.50;5016634;28;46105;-69
2022/06/22 02:48:48;;;;;;;;;18.33;17.33;;;;;20.86;51.32;100555.66;5015463;28;45363;-69
2022/06/22 02:51:24;;;;;;;;;18.67;18.33;;;;;20.23;50.85;100452.03;5015803;28;45457;-70
2022/06/22 02:53:52;;;;;;;;;14.00;14.00;;;;;21.05;50.76;100569.28;5016976;28;45438;-69
2022/06/22 02:56:23;;;;;;;;;18.67;17.00;;;;;20.99;50.97;100560.13;5015021;28;47953;-68
2022/06/22 02:58:49;;;;;;;;;17.00;15.67;;;;;20.96;51.08;100558.69;5016606;28;45478;-69
2022/06/22 03:01:22;;;;;;;;;18.67;15.33;;;;;20.93;51.04;100551.03;5015244;28;45351;-67
2022/06/22 03:03:52;;;;;;;;;19.67;19.67;;;;;20.74;51.29;100516.84;5031937;28;45228;-70
2022/06/22 03:06:20;;;;;;;;;19.00;16.67;;;;;20.85;51.21;100534.25;5014997;28;46707;-70
2022/06/22 03:08:46;;;;;;;;;19.33;17.00;;;;;20.85;51.27;100534.25;5016372;28;45473;-69
2022/06/22 03:11:12;;;;;;;;;18.00;18.00;;;;;20.62;51.63;100503.19;5015176;28;45265;-71
2022/06/22 03:13:56;;;;;;;;;16.00;14.33;;;;;20.76;51.52;100520.16;5020610;28;45484;-69
2022/06/22 03:16:28;;;;;;;;;16.33;16.33;;;;;20.77;51.48;100524.50;5036256;28;46631;-71
2022/06/22 03:18:56;;;;;;;;;16.00;15.33;;;;;20.66;51.33;100495.50;5036155;28;45306;-69
2022/06/22 03:21:25;;;;;;;;;20.33;15.33;;;;;20.12;51.20;100420.31;5036146;28;45312;-70
2022/06/22 03:24:02;;;;;;;;;19.33;16.00;;;;;20.32;51.53;100462.38;5036304;28;45404;-70
2022/06/22 03:26:34;;;;;;;;;14.67;13.67;;;;;20.48;51.70;100481.88;5036378;28;46128;-70
2022/06/22 03:29:10;;;;;;;;;16.67;16.67;;;;;20.74;51.56;100524.94;5039534;28;45319;-70
2022/06/22 03:31:43;;;;;;;;;18.33;16.67;;;;;20.77;51.40;100524.50;5039810;28;45426;-71
2022/06/22 03:34:15;;;;;;;;;15.33;15.33;;;;;20.66;51.39;100509.00;5039896;28;45455;-69
2022/06/22 03:36:40;;;;;;;;;19.00;18.33;;;;;20.70;51.38;100515.63;5038315;28;47662;-70
2022/06/22 03:39:09;;;;;;;;;16.33;16.33;;;;;20.33;51.56;100479.41;5054908;28;45473;-67
2022/06/22 03:41:42;;;;;;;;;19.67;19.00;;;;;20.10;51.73;100444.81;5039456;28;45518;-70
2022/06/22 03:44:23;;;;;;;;;18.33;18.00;;;;;20.42;51.70;100480.00;5031188;28;45550;-68
2022/06/22 03:46:48;;;;;;;;;17.33;17.33;;;;;20.54;51.84;100513.41;5019174;28;47002;-72
2022/06/22 03:49:20;;;;;;;;;14.00;14.00;;;;;20.21;51.94;100454.94;5019208;28;45428;-70
2022/06/22 03:51:53;;;;;;;;;14.33;14.33;;;;;20.43;52.00;100500.59;5019279;28;45287;-70
2022/06/22 03:54:27;;;;;;;;;17.67;17.67;;;;;20.41;51.85;100506.19;5017934;28;45364;-69
2022/06/22 03:57:00;;;;;;;;;20.00;20.00;;;;;19.60;52.05;100387.06;5019093;28;45931;-70
2022/06/22 03:59:26;;;;;;;;;19.00;19.00;;;;;20.28;52.08;100512.44;5019248;28;45337;-70
2022/06/22 04:01:55;;;;;;;;;15.00;13.67;;;;;20.25;52.40;100517.44;5019266;28;45321;-68
2022/06/22 04:04:23;;;;;;;;;18.33;17.33;;;;;20.01;52.78;100475.75;5018214;28;45261;-70
2022/06/22 04:06:53;;;;;;;;;19.00;17.00;;;;;19.49;52.31;100393.91;5017233;28;47923;-69
2022/06/22 04:09:22;;;;;;;;;20.00;20.00;;;;;20.29;52.27;100524.06;5019015;28;45274;-70
2022/06/22 04:11:52;;;;;;;;;18.33;18.33;;;;;20.38;52.25;100530.88;5018995;28;45353;-69
2022/06/22 04:14:25;;;;;;;;;19.33;17.67;;;;;20.36;51.97;100533.78;5020167;28;45392;-70
2022/06/22 04:16:58;;;;;;;;;22.00;18.00;;;;;20.41;52.50;100540.44;5016998;28;48686;-70
2022/06/22 04:19:41;;;;;;;;;20.33;18.00;;;;;20.10;51.82;100488.00;5018980;28;45275;-68
2022/06/22 04:22:11;;;;;;;;;18.67;18.00;;;;;20.35;52.09;100548.34;5019209;28;45356;-69
2022/06/22 04:24:50;;;;;;;;;14.67;14.00;;;;;20.14;51.97;100507.28;5019108;28;45258;-70
2022/06/22 04:27:22;;;;;;;;;16.67;16.33;;;;;20.32;52.12;100546.06;5018543;28;46812;-68
2022/06/22 04:30:01;;;;;;;;;19.33;17.67;;;;;20.26;52.23;100530.72;5018653;28;45566;-70
2022/06/22 04:32:54;;;;;;;;;19.33;16.33;;;;;20.02;52.17;100483.66;5018866;28;45333;-70
2022/06/22 04:35:31;;;;;;;;;18.00;15.67;;;;;19.82;52.25;100455.06;5033861;28;45621;-71
2022/06/22 04:38:05;;;;;;;;;20.00;17.67;;;;;20.31;52.29;100522.81;5015956;28;47968;-68
2022/06/22 04:40:45;;;;;;;;;21.33;15.67;;;;;20.32;52.26;100504.75;5034536;28;45359;-69
2022/06/22 04:43:11;;;;;;;;;17.00;16.67;;;;;20.36;52.10;100533.78;5019472;28;45373;-69
2022/06/22 04:45:40;;;;;;;;;19.67;16.67;;;;;20.39;52.08;100527.13;5038640;28;45443;-69
2022/06/22 04:48:15;;;;;;;;;18.67;17.33;;;;;20.00;52.08;100477.63;5038192;28;47458;-68
2022/06/22 04:50:44;;;;;;;;;22.67;18.67;;;;;19.99;52.19;100484.06;5036992;28;45491;-69
2022/06/22 04:53:34;;;;;;;;;19.00;19.00;;;;;20.23;52.21;100525.75;5054165;28;45252;-70
2022/06/22 04:56:04;;;;;;;;;22.67;18.67;;;;;20.29;52.23;100526.78;5038428;28;45596;-69
2022/06/22 04:58:41;;;;;;;;;20.67;19.00;;;;;20.31;52.28;100547.09;5038145;28;46169;-68
2022/06/22 05:01:17;;;;;;;;;19.33;18.33;;;;;20.30;52.07;100537.34;5038301;28;45252;-72
2022/06/22 05:03:43;;;;;;;;;17.67;16.67;;;;;19.87;52.18;100455.28;5038173;28;46119;-70
2022/06/22 05:06:17;;;;;;;;;22.00;19.00;;;;;20.25;52.45;100520.97;5038297;28;45474;-70
2022/06/22 05:08:52;;;;;;;;;15.33;14.00;;;;;20.34;52.23;100514.28;5037834;28;46661;-68
2022/06/22 05:11:26;;;;;;;;;18.67;16.67;;;;;20.11;52.10;100481.56;5037846;28;45344;-71
2022/06/22 05:13:54;;;;;;;;;17.67;17.33;;;;;20.12;52.25;100493.19;5031764;28;45269;-70
2022/06/22 05:16:32;;;;;;;;;17.67;16.33;;;;;20.17;52.45;100506.88;5018303;28;45381;-70
2022/06/22 05:19:00;;;;;;;;;17.67;17.67;;;;;19.91;52.54;100464.59;5017827;28;46150;-69
2022/06/22 05:21:46;;;;;;;;;19.67;17.00;;;;;20.08;52.35;100503.56;5018748;28;45475;-71
2022/06/22 05:24:14;;;;;;;;;20.00;19.00;;;;;20.10;52.92;100517.69;5017161;28;45288;-69
2022/06/22 05:26:41;;;;;;;;;20.00;18.67;;;;;20.11;52.84;100513.13;5018862;28;45511;-69
2022/06/22 05:29:18;;;;;;;;;17.33;17.33;;;;;19.83;52.73;100473.75;5030666;28;46718;-70
2022/06/22 05:31:48;;;;;;;;;16.00;14.67;;;;;19.40;52.67;100393.28;5017549;28;45202;-69
2022/06/22 05:34:22;;;;;;;;;21.33;17.33;;;;;19.74;52.39;100440.78;5029283;28;45424;-70
2022/06/22 05:36:57;;;;;;;;;20.33;17.33;;;;;19.73;52.47;100439.13;5016771;28;45342;-69
2022/06/22 05:39:23;;;;;;;;;17.67;15.00;;;;;20.05;52.54;100493.22;5017203;28;45680;-70
2022/06/22 05:41:48;;;;;;;;;23.00;20.00;;;;;20.18;52.48;100513.91;5016048;28;45529;-68
2022/06/22 05:44:18;;;;;;;;;19.00;19.00;;;;;20.21;52.50;100508.91;5017059;28;45380;-70
2022/06/22 05:46:56;;;;;;;;;18.00;16.00;;;;;20.07;52.52;100501.09;5017684;28;45285;-70
2022/06/22 05:49:31;;;;;;;;;21.33;17.00;;;;;20.17;52.46;100515.78;5017393;28;46329;-71
2022/06/22 05:52:13;;;;;;;;;19.67;17.67;;;;;19.64;52.63;100426.91;5016871;28;45364;-72
2022/06/22 05:54:48;;;;;;;;;20.33;18.33;;;;;20.16;52.78;100516.84;5017424;28;45472;-68
2022/06/22 05:57:39;;;;;;;;;17.67;16.00;;;;;19.64;53.05;100426.91;5017359;28;45432;-70
2022/06/22 06:00:14;;;;;;;;;22.67;22.67;;;;;20.06;52.26;100484.06;5017881;28;46433;-70
2022/06/22 06:03:24;;;;;;;;;22.00;20.33;;;;;20.18;52.52;100508.53;5017082;28;46030;-70
2022/06/22 06:05:54;;;;;;;;;17.00;17.00;;;;;20.14;52.29;100508.13;5017920;28;45238;-69
2022/06/22 06:08:36;;;;;;;;;16.67;16.67;;;;;20.12;52.33;100495.88;5017690;28;45616;-72
2022/06/22 06:11:04;;;;;;;;;21.00;21.00;;;;;19.92;52.67;100479.75;5016516;28;45415;-70
2022/06/22 06:13:39;;;;;;;;;25.00;21.67;;;;;19.82;52.85;100482.88;5014941;28;45840;-70
2022/06/22 06:16:12;;;;;;;;;19.67;19.00;;;;;19.96;52.38;100489.06;5032139;28;45539;-69
2022/06/22 06:18:43;;;;;;;;;17.33;17.33;;;;;20.04;52.77;100521.25;5017168;28;45352;-70
2022/06/22 06:21:13;;;;;;;;;23.67;22.67;;;;;19.92;52.60;100496.75;5024292;28;45955;-72
2022/06/22 06:23:44;;;;;;;;;18.33;17.33;;;;;19.62;52.64;100444.31;5036256;28;45286;-72
2022/06/22 06:29:11;;;;;;;;;20.00;18.33;;;;;19.14;52.42;100372.59;5018278;28;45352;-71
2022/06/22 06:31:55;;;;;;;;;20.33;18.33;;;;;20.04;52.95;100510.44;5030988;28;45883;-71
2022/06/22 06:34:26;;;;;;;;;17.67;17.00;;;;;19.98;52.71;100512.09;5015573;28;45698;-69
2022/06/22 06:37:11;;;;;;;;;18.00;18.00;;;;;20.00;52.94;100501.09;5015717;28;45355;-71
2022/06/22 06:39:44;;;;;;;;;21.33;17.67;;;;;19.96;52.92;100494.47;5002789;28;45694;-72
2022/06/22 06:42:31;;;;;;;;;23.33;19.00;;;;;20.11;52.53;100522.03;5015100;28;45487;-70
2022/06/22 06:44:59;;;;;;;;;22.33;22.00;;;;;20.09;52.71;100512.50;5015327;28;45465;-68
2022/06/22 06:47:31;;;;;;;;;20.67;18.33;;;;;19.82;52.62;100477.47;5015946;28;45404;-72
2022/06/22 06:50:13;;;;;;;;;19.33;19.33;;;;;19.36;52.51;100396.63;5019554;28;45476;-71
2022/06/22 06:52:50;;;;;;;;;19.33;18.67;;;;;19.96;52.66;100499.84;5017424;28;45810;-72
2022/06/22 06:55:42;;;;;;;;;18.67;18.67;;;;;20.19;52.50;100527.19;5014247;28;45607;-71
2022/06/22 06:58:23;;;;;;;;;19.33;19.00;;;;;20.16;52.74;100516.84;5016110;28;45325;-70
2022/06/22 07:00:49;;;;;;;;;19.67;17.67;;;;;20.19;52.40;100521.78;5017083;28;45296;-71
2022/06/22 07:03:25;;;;;;;;;16.67;16.67;;;;;20.22;52.34;100532.19;5018404;28;45936;-74
2022/06/22 07:05:51;;;;;;;;;23.33;19.67;;;;;19.64;52.13;100440.38;5030539;28;45462;-72
2022/06/22 07:08:24;;;;;;;;;16.00;15.67;;;;;20.24;52.22;100530.13;5012898;28;45444;-71
2022/06/22 07:11:06;;;;;;;;;21.33;18.00;;;;;20.24;52.26;100530.13;4999861;28;45507;-70
2022/06/22 07:13:39;;;;;;;;;19.67;17.67;;;;;19.97;52.37;100478.06;4999485;28;46501;-70
2022/06/22 07:16:11;;;;;;;;;17.33;17.33;;;;;20.18;52.37;100524.72;5014660;28;45339;-70
2022/06/22 07:18:43;;;;;;;;;23.67;20.00;;;;;19.94;52.39;100496.53;4999722;28;45480;-70
2022/06/22 07:21:16;;;;;;;;;20.67;19.00;;;;;20.23;52.34;100531.16;4999809;28;45516;-70
2022/06/22 07:23:51;;;;;;;;;24.00;21.67;;;;;20.27;52.17;100521.59;5031033;28;45449;-70
2022/06/22 07:26:29;;;;;;;;;18.67;18.67;;;;;20.31;52.07;100520.09;5014851;28;45626;-71
2022/06/22 07:29:11;;;;;;;;;19.67;19.67;;;;;20.31;51.96;100522.81;4999789;28;45322;-70
2022/06/22 07:31:47;;;;;;;;;21.00;18.67;;;;;20.23;52.32;100503.34;5016541;28;45495;-68
2022/06/22 07:34:26;;;;;;;;;21.67;21.00;;;;;19.83;52.09;100452.19;5017681;28;46727;-71
2022/06/22 07:37:00;;;;;;;;;24.00;20.00;;;;;20.01;52.29;100462.28;5017192;28;45508;-68
2022/06/22 07:39:47;;;;;;;;;24.33;22.33;;;;;20.24;52.01;100492.31;5017337;28;45285;-70
2022/06/22 07:42:13;;;;;;;;;23.00;20.00;;;;;20.45;52.11;100523.63;5019179;28;45316;-69
2022/06/22 07:44:41;;;;;;;;;21.00;19.67;;;;;20.66;51.81;100549.50;5018709;28;46700;-71
2022/06/22 07:47:16;;;;;;;;;27.33;23.00;;;;;20.71;51.58;100544.28;5017625;28;45375;-70
2022/06/22 07:49:56;;;;;;;;;24.67;22.33;;;;;20.69;51.40;100532.03;5018561;28;45418;-69
2022/06/22 07:52:30;;;;;;;;;22.67;19.00;;;;;20.66;50.84;100533.31;5019027;28;45440;-70
2022/06/22 07:55:17;;;;;;;;;24.00;21.00;;;;;20.68;51.54;100536.63;5018432;28;45980;-70
2022/06/22 07:57:51;;;;;;;;;20.67;19.00;;;;;20.86;51.43;100539.44;5020151;28;45688;-72
2022/06/22 08:00:20;;;;;;;;;17.33;17.33;;;;;20.65;51.05;100493.84;5042649;28;45386;-72
2022/06/22 08:02:59;;;;;;;;;23.33;23.00;;;;;20.85;50.93;100515.34;5018805;28;45226;-69
2022/06/22 08:05:36;;;;;;;;;21.67;20.67;;;;;21.06;50.67;100538.50;5018989;28;45823;-70
2022/06/22 08:08:20;;;;;;;;;22.33;21.33;;;;;21.28;50.55;100539.00;5016820;28;46236;-71
2022/06/22 08:11:11;;;;;;;;;26.33;21.00;;;;;21.52;49.83;100555.25;5017349;28;45334;-70
2022/06/22 08:13:45;;;;;;;;;21.33;21.33;;;;;21.40;49.14;100489.38;5018099;28;45215;-70
2022/06/22 08:16:22;;;;;;;;;22.33;19.00;;;;;21.36;48.08;100439.50;5018357;28;45529;-73
2022/06/22 08:18:48;;;;;;;;;22.67;21.67;;;;;22.35;47.37;100551.34;5018334;28;45559;-68
2022/06/22 08:21:17;;;;;;;;;19.67;19.67;;;;;21.60;47.07;100399.09;5018536;28;45443;-70
2022/06/22 08:23:43;;;;;;;;;24.33;22.00;;;;;23.01;46.56;100555.94;5019615;28;45490;-71
2022/06/22 08:26:29;;;;;;;;;24.33;19.67;;;;;23.22;45.30;100498.47;5034840;28;46637;-71
2022/06/22 08:28:55;;;;;;;;;23.00;21.33;;;;;23.91;44.65;100570.22;5048042;28;45695;-71
2022/06/22 08:31:20;;;;;;;;;20.67;19.67;;;;;23.91;43.58;100545.78;5018082;28;45518;-69
2022/06/22 08:33:56;;;;;;;;;26.00;23.00;;;;;24.16;43.57;100577.28;5018581;28;45369;-71
2022/06/22 08:37:06;;;;;;;;;21.67;19.67;;;;;23.97;43.15;100531.22;5027821;28;45606;-71
2022/06/22 08:39:37;;;;;;;;;22.00;22.00;;;;;24.13;43.38;100551.41;4997540;28;45443;-71
2022/06/22 08:42:21;;;;;;;;;23.67;23.67;;;;;24.21;42.97;100550.22;5027978;28;45490;-70
2022/06/22 08:45:28;;;;;;;;;24.67;22.33;;;;;24.17;43.32;100546.34;5016602;28;45364;-72
2022/06/22 08:48:03;;;;;;;;;19.67;19.67;;;;;24.26;44.02;100561.22;5017846;28;46440;-69
2022/06/22 08:50:49;;;;;;;;;17.00;16.00;;;;;24.62;43.69;100554.66;5018764;28;45183;-71
2022/06/22 08:53:30;;;;;;;;;27.33;26.67;;;;;23.51;41.82;100330.41;5018512;28;45452;-70
2022/06/22 08:56:20;;;;;;;;;21.33;18.00;;;;;24.19;42.52;100440.97;5018420;28;45302;-71
2022/06/22 08:58:54;;;;;;;;;22.33;21.33;;;;;24.77;42.26;100546.81;5015812;28;45841;-71
2022/06/22 09:01:57;;;;;;;;;24.33;23.00;;;;;24.71;42.31;100552.41;5015429;28;45450;-71
2022/06/22 09:04:34;;;;;;;;;20.67;20.67;;;;;24.02;43.13;100451.75;5017652;28;45246;-71
2022/06/22 09:07:34;;;;;;;;;20.00;18.33;;;;;24.56;42.50;100556.44;5017518;28;45476;-71
2022/06/22 09:10:33;;;;;;;;;18.33;18.00;;;;;24.60;42.84;100555.97;5016519;28;46645;-71
2022/06/22 09:13:21;;;;;;;;;22.00;18.33;;;;;24.78;42.49;100564.78;5034935;28;45346;-70
2022/06/22 09:16:02;;;;;;;;;19.33;19.33;;;;;24.65;42.49;100554.19;5019296;28;45502;-72
2022/06/22 09:18:46;;;;;;;;;18.33;18.33;;;;;24.59;42.55;100557.84;5018322;28;45509;-71
2022/06/22 09:21:30;;;;;;;;;19.00;18.67;;;;;24.46;43.17;100564.41;5029140;28;46072;-69
2022/06/22 09:24:17;;;;;;;;;19.67;19.67;;;;;24.32;43.52;100554.03;5011773;28;45406;-70
2022/06/22 09:26:42;;;;;;;;;22.00;21.00;;;;;22.22;43.30;100234.66;5008230;28;45635;-72
2022/06/22 09:29:13;;;;;;;;;22.00;21.00;;;;;24.31;43.85;100566.78;5022147;28;45470;-71
2022/06/22 09:31:59;;;;;;;;;24.00;24.00;;;;;24.33;43.91;100578.25;5017255;28;45684;-72
2022/06/22 09:34:51;;;;;;;;;24.33;20.67;;;;;23.59;43.68;100480.13;5032646;28;45464;-72
2022/06/22 09:37:38;;;;;;;;;24.00;17.67;;;;;24.24;44.41;100580.47;5041538;28;45469;-72
2022/06/22 09:40:30;;;;;;;;;23.67;18.67;;;;;24.48;44.06;100581.28;5017220;28;45356;-72
2022/06/22 09:43:00;;;;;;;;;16.67;16.67;;;;;24.80;42.87;100567.25;5020470;28;47142;-72
2022/06/22 09:45:51;;;;;;;;;22.00;19.33;;;;;23.92;43.30;100433.38;5017452;28;45283;-69
2022/06/22 09:48:35;;;;;;;;;23.33;21.00;;;;;24.84;42.87;100560.28;5024786;28;45384;-73
2022/06/22 09:51:28;;;;;;;;;25.33;20.33;;;;;24.81;43.08;100552.56;5036725;28;45399;-74
2022/06/22 09:54:02;;;;;;;;;22.00;22.00;;;;;24.35;43.39;100478.28;5017244;28;45636;-72
2022/06/22 09:57:06;;;;;;;;;21.00;20.00;;;;;24.90;42.90;100553.84;5043214;28;45504;-73
2022/06/22 09:59:53;;;;;;;;;22.67;20.33;;;;;24.96;43.29;100560.22;4996990;28;45549;-72
2022/06/22 10:02:38;;;;;;;;;19.33;17.33;;;;;25.05;42.83;100558.81;5013921;28;45445;-73
2022/06/22 10:05:31;;;;;;;;;22.33;22.33;;;;;25.29;43.55;100556.78;5016413;28;46699;-71
2022/06/22 10:08:29;;;;;;;;;23.00;22.33;;;;;25.70;42.48;100556.41;5018561;28;45398;-71
2022/06/22 10:11:01;;;;;;;;;19.67;17.33;;;;;25.85;41.57;100522.31;5015658;28;45502;-72
2022/06/22 10:13:32;;;;;;;;;22.00;21.67;;;;;26.21;41.87;100562.59;5016681;28;45423;-73
2022/06/22 10:16:25;;;;;;;;;20.00;20.00;;;;;26.30;41.61;100550.19;5016000;28;45592;-74
2022/06/22 10:19:30;;;;;;;;;17.00;16.67;;;;;26.35;41.89;100544.84;5028002;28;45547;-72
2022/06/22 10:22:28;;;;;;;;;21.67;16.33;;;;;26.44;41.28;100552.59;4996960;28;45382;-73
2022/06/22 10:25:44;;;;;;;;;22.33;21.00;;;;;26.40;41.51;100541.34;5028843;28;45574;-73
2022/06/22 10:28:31;;;;;;;;;22.00;21.00;;;;;26.32;42.15;100552.66;5013514;28;49080;-72
2022/06/22 10:31:34;;;;;;;;;24.33;22.00;;;;;26.21;42.62;100550.88;5023937;28;45293;-74
2022/06/22 10:34:18;;;;;;;;;18.33;18.33;;;;;26.08;42.55;100546.63;5030031;28;45408;-72
2022/06/22 10:37:43;;;;;;;;;21.67;21.67;;;;;25.97;42.71;100523.84;5032061;28;45478;-70
2022/06/22 10:46:47;;;;;;;;;20.67;17.33;;;;;25.63;43.85;100482.22;5017579;28;45254;-73
2022/06/22 10:49:22;;;;;;;;;19.00;19.00;;;;;25.93;44.25;100517.25;5030262;28;45581;-73
2022/06/22 10:52:10;;;;;;;;;16.67;15.00;;;;;25.66;44.41;100470.00;5014596;28;45451;-72
2022/06/22 10:54:54;;;;;;;;;20.67;19.00;;;;;25.88;44.33;100513.66;5012026;28;46412;-73
2022/06/22 10:57:28;;;;;;;;;19.67;18.67;;;;;25.76;45.60;100511.84;5031453;28;45508;-72
2022/06/22 11:00:19;;;;;;;;;14.33;13.67;;;;;25.17;46.63;100410.75;5031818;28;45613;-73
2022/06/22 11:03:30;;;;;;;;;13.00;13.00;;;;;25.89;46.87;100505.22;5035679;28;46249;-73
2022/06/22 11:06:33;;;;;;;;;14.00;14.00;;;;;25.82;47.36;100510.00;5030018;28;45475;-72
2022/06/22 11:09:39;;;;;;;;;16.00;13.67;;;;;25.77;47.98;100510.75;5019939;28;45472;-72
2022/06/22 11:12:29;;;;;;;;;14.00;13.67;;;;;25.76;48.07;100521.91;5031576;28;45427;-72
2022/06/22 11:15:12;;;;;;;;;14.33;13.33;;;;;24.26;47.96;100287.66;5031806;28;46688;-71
2022/06/22 11:17:53;;;;;;;;;13.67;13.33;;;;;25.80;48.87;100516.78;5030483;28;45474;-74
2022/06/22 11:20:50;;;;;;;;;11.67;11.67;;;;;25.81;48.36;100529.31;5031335;28;45570;-71
2022/06/22 11:23:32;;;;;;;;;13.67;13.67;;;;;25.53;48.39;100503.84;5036119;28;45360;-72
2022/06/22 11:32:35;;;;;;;;;16.67;15.33;;;;;25.17;48.66;100467.88;5033667;28;45456;-72
2022/06/22 11:35:18;;;;;;;;;13.00;13.00;;;;;25.55;48.50;100534.34;5035474;28;45570;-73
2022/06/22 11:38:19;;;;;;;;;14.00;12.33;;;;;25.55;48.70;100531.63;5051334;28;48494;-75
2022/06/22 11:41:02;;;;;;;;;22.00;18.00;;;;;24.94;48.87;100426.38;5034830;28;45685;-72
2022/06/22 11:44:03;;;;;;;;;12.00;12.00;;;;;25.48;48.87;100530.97;5035801;28;45548;-72
2022/06/22 11:46:48;;;;;;;;;15.67;15.67;;;;;24.61;48.87;100399.97;5036450;28;45757;-71
2022/06/22 11:49:28;;;;;;;;;18.67;17.33;;;;;25.30;49.02;100520.34;5039598;28;46184;-72
2022/06/22 11:52:16;;;;;;;;;19.33;16.67;;;;;25.30;49.47;100523.06;5023490;28;45576;-71
2022/06/22 11:54:54;;;;;;;;;17.33;17.33;;;;;25.20;49.58;100506.53;5034493;28;45269;-74
2022/06/22 11:57:35;;;;;;;;;18.33;17.33;;;;;25.32;49.59;100540.78;5034227;28;45352;-70
2022/06/22 12:00:12;;;;;;;;;15.00;15.00;;;;;25.33;49.54;100536.97;5032849;28;45377;-71
2022/06/22 12:02:55;;;;;;;;;18.00;17.67;;;;;25.28;49.66;100534.19;5038428;28;45454;-73
2022/06/22 12:05:52;;;;;;;;;16.67;16.67;;;;;25.14;50.05;100525.50;5029224;28;45271;-74
2022/06/22 12:08:35;;;;;;;;;17.00;13.33;;;;;25.20;50.35;100533.75;5023581;28;45306;-71
2022/06/22 12:11:12;;;;;;;;;17.33;16.33;;;;;25.20;50.46;100531.03;5027434;28;46211;-72
2022/06/22 12:16:47;;;;;;;;;16.67;14.67;;;;;24.75;50.54;100485.59;5039000;28;45337;-71
2022/06/22 12:19:32;;;;;;;;;22.00;19.33;;;;;25.08;50.67;100548.25;5037162;28;45562;-73
2022/06/22 12:22:14;;;;;;;;;18.33;17.67;;;;;24.48;50.89;100480.75;5034082;28;45545;-72
2022/06/22 12:24:54;;;;;;;;;17.33;17.33;;;;;24.91;51.23;100543.81;5036973;28;45407;-75
2022/06/22 12:27:38;;;;;;;;;19.33;19.33;;;;;23.83;51.06;100393.28;5038739;28;45328;-71